sensor_id;sensor_type;location;lat;lon;timestamp;pressure;altitude;pressure_sealevel;temperature;humidity
8717;BME280;4395;48.554;8.820;2023-07-08T00:01:08;96034.81;;;22.74;49.49
8717;BME280;4395;48.554;8.820;2023-07-08T00:03:13;96011.81;;;22.58;48.72
8717;BME280;4395;48.554;8.820;2023-07-08T00:05:21;96034.47;;;22.85;49.07
8717;BME280;4395;48.554;8.820;2023-07-08T00:07:26;96031.91;;;22.80;47.80
8717;BME280;4395;48.554;8.820;2023-07-08T00:09:30;96033.38;;;22.68;49.22
8717;BME280;4395;48.554;8.820;2023-07-08T00:11:33;96035.97;;;22.65;48.75
8717;BME280;4395;48.554;8.820;2023-07-08T00:13:36;95953.41;;;22.28;49.61
8717;BME280;4395;48.554;8.820;2023-07-08T00:15:39;95965.34;;;22.24;48.28
8717;BME280;4395;48.554;8.820;2023-07-08T00:17:44;95985.47;;;22.10;49.88
8717;BME280;4395;48.554;8.820;2023-07-08T00:19:47;95814.91;;;20.77;49.30
8717;BME280;4395;48.554;8.820;2023-07-08T00:21:52;95979.53;;;22.08;49.83
8717;BME280;4395;48.554;8.820;2023-07-08T00:23:55;96014.44;;;22.20;50.51
8717;BME280;4395;48.554;8.820;2023-07-08T00:29:45;95987.56;;;22.13;51.00
8717;BME280;4395;48.554;8.820;2023-07-08T00:31:48;96018.13;;;22.33;51.59
8717;BME280;4395;48.554;8.820;2023-07-08T00:33:53;96028.44;;;22.36;51.43
8717;BME280;4395;48.554;8.820;2023-07-08T00:35:58;96010.09;;;22.28;49.80
8717;BME280;4395;48.554;8.820;2023-07-08T00:38:02;95979.69;;;22.03;51.53
8717;BME280;4395;48.554;8.820;2023-07-08T00:40:14;96014.28;;;22.34;51.67
8717;BME280;4395;48.554;8.820;2023-07-08T00:42:19;96003.81;;;22.27;50.72
8717;BME280;4395;48.554;8.820;2023-07-08T00:44:24;96004.00;;;22.13;50.91
8717;BME280;4395;48.554;8.820;2023-07-08T00:46:33;96009.28;;;22.01;52.28
8717;BME280;4395;48.554;8.820;2023-07-08T00:48:38;96013.34;;;22.12;51.53
8717;BME280;4395;48.554;8.820;2023-07-08T00:50:43;95989.66;;;22.08;51.05
8717;BME280;4395;48.554;8.820;2023-07-08T00:52:47;95962.53;;;20.18;59.59
8717;BME280;4395;48.554;8.820;2023-07-08T00:54:51;96013.03;;;21.23;55.84
8717;BME280;4395;48.554;8.820;2023-07-08T00:56:57;96017.63;;;21.53;54.16
8717;BME280;4395;48.554;8.820;2023-07-08T01:03:01;96011.53;;;21.91;53.41
8717;BME280;4395;48.554;8.820;2023-07-08T01:05:08;96016.53;;;21.97;53.58
8717;BME280;4395;48.554;8.820;2023-07-08T01:07:14;95995.28;;;21.60;52.72
8717;BME280;4395;48.554;8.820;2023-07-08T01:09:24;96022.47;;;21.91;53.02
8717;BME280;4395;48.554;8.820;2023-07-08T01:11:30;96017.50;;;22.01;52.23
8717;BME280;4395;48.554;8.820;2023-07-08T01:13:35;96018.63;;;21.92;51.07
8717;BME280;4395;48.554;8.820;2023-07-08T01:15:42;96022.03;;;22.06;51.79
8717;BME280;4395;48.554;8.820;2023-07-08T01:17:46;96022.97;;;22.01;51.57
8717;BME280;4395;48.554;8.820;2023-07-08T01:19:55;96021.88;;;22.02;51.24
8717;BME280;4395;48.554;8.820;2023-07-08T01:22:01;95875.22;;;20.98;51.15
8717;BME280;4395;48.554;8.820;2023-07-08T01:24:05;96024.06;;;21.09;54.67
8717;BME280;4395;48.554;8.820;2023-07-08T01:26:08;96014.41;;;21.60;53.91
8717;BME280;4395;48.554;8.820;2023-07-08T01:28:11;96008.97;;;21.86;52.58
8717;BME280;4395;48.554;8.820;2023-07-08T01:30:16;95970.81;;;21.63;52.10
8717;BME280;4395;48.554;8.820;2023-07-08T01:32:19;96012.66;;;21.81;51.55
8717;BME280;4395;48.554;8.820;2023-07-08T01:34:22;95998.00;;;21.68;50.69
8717;BME280;4395;48.554;8.820;2023-07-08T01:36:26;96021.34;;;21.17;53.73
8717;BME280;4395;48.554;8.820;2023-07-08T01:38:37;95980.25;;;20.30;54.31
8717;BME280;4395;48.554;8.820;2023-07-08T01:40:49;96017.19;;;20.80;56.69
8717;BME280;4395;48.554;8.820;2023-07-08T01:42:53;96015.06;;;20.77;54.37
8717;BME280;4395;48.554;8.820;2023-07-08T01:44:56;95989.25;;;20.83;55.06
8717;BME280;4395;48.554;8.820;2023-07-08T01:47:05;96022.31;;;20.29;58.52
8717;BME280;4395;48.554;8.820;2023-07-08T01:49:10;96020.69;;;19.83;62.22
8717;BME280;4395;48.554;8.820;2023-07-08T01:51:13;95988.28;;;19.81;60.93
8717;BME280;4395;48.554;8.820;2023-07-08T01:53:21;95997.34;;;19.41;64.17
8717;BME280;4395;48.554;8.820;2023-07-08T01:55:27;95902.28;;;18.21;67.43
8717;BME280;4395;48.554;8.820;2023-07-08T01:57:32;96023.56;;;19.50;64.33
8717;BME280;4395;48.554;8.820;2023-07-08T01:59:34;96027.09;;;19.65;65.57
8717;BME280;4395;48.554;8.820;2023-07-08T02:01:37;95976.81;;;18.93;66.86
8717;BME280;4395;48.554;8.820;2023-07-08T02:03:40;96030.63;;;19.51;62.89
8717;BME280;4395;48.554;8.820;2023-07-08T02:05:46;96038.03;;;19.37;65.58
8717;BME280;4395;48.554;8.820;2023-07-08T02:07:48;96039.22;;;19.95;62.63
8717;BME280;4395;48.554;8.820;2023-07-08T02:09:51;96002.34;;;19.75;61.68
8717;BME280;4395;48.554;8.820;2023-07-08T02:11:55;96000.19;;;20.08;59.70
8717;BME280;4395;48.554;8.820;2023-07-08T02:13:58;96032.44;;;20.50;58.51
8717;BME280;4395;48.554;8.820;2023-07-08T02:16:02;96032.13;;;20.52;59.60
8717;BME280;4395;48.554;8.820;2023-07-08T02:18:05;96037.06;;;20.72;57.14
8717;BME280;4395;48.554;8.820;2023-07-08T02:20:10;96020.41;;;20.51;58.25
8717;BME280;4395;48.554;8.820;2023-07-08T02:22:15;96042.03;;;20.26;59.81
8717;BME280;4395;48.554;8.820;2023-07-08T02:24:18;96045.38;;;20.00;59.84
8717;BME280;4395;48.554;8.820;2023-07-08T02:26:21;96022.97;;;19.53;65.18
8717;BME280;4395;48.554;8.820;2023-07-08T02:28:25;96036.63;;;20.12;62.13
8717;BME280;4395;48.554;8.820;2023-07-08T02:30:28;96043.03;;;20.30;61.21
8717;BME280;4395;48.554;8.820;2023-07-08T02:32:33;96049.91;;;19.69;64.35
8717;BME280;4395;48.554;8.820;2023-07-08T02:34:37;96052.03;;;19.72;64.38
8717;BME280;4395;48.554;8.820;2023-07-08T02:36:39;96024.97;;;19.62;62.46
8717;BME280;4395;48.554;8.820;2023-07-08T02:38:42;96029.59;;;19.75;62.31
8717;BME280;4395;48.554;8.820;2023-07-08T02:40:45;96017.72;;;19.57;64.53
8717;BME280;4395;48.554;8.820;2023-07-08T02:42:48;96056.06;;;19.74;63.55
8717;BME280;4395;48.554;8.820;2023-07-08T02:44:52;96034.84;;;20.30;62.36
8717;BME280;4395;48.554;8.820;2023-07-08T02:46:58;96017.78;;;20.24;61.63
8717;BME280;4395;48.554;8.820;2023-07-08T02:49:01;96042.28;;;20.82;60.29
8717;BME280;4395;48.554;8.820;2023-07-08T02:51:06;96039.81;;;20.50;60.19
8717;BME280;4395;48.554;8.820;2023-07-08T02:53:10;96037.72;;;20.78;57.69
8717;BME280;4395;48.554;8.820;2023-07-08T02:55:17;96014.06;;;20.96;58.21
8717;BME280;4395;48.554;8.820;2023-07-08T02:57:19;96028.88;;;21.03;58.67
8717;BME280;4395;48.554;8.820;2023-07-08T02:59:23;96001.50;;;20.95;57.71
8717;BME280;4395;48.554;8.820;2023-07-08T03:01:27;96031.94;;;21.10;56.65
8717;BME280;4395;48.554;8.820;2023-07-08T03:03:30;96031.56;;;21.34;56.78
8717;BME280;4395;48.554;8.820;2023-07-08T03:05:33;95944.47;;;20.93;55.10
8717;BME280;4395;48.554;8.820;2023-07-08T03:07:36;96003.75;;;21.32;56.04
8717;BME280;4395;48.554;8.820;2023-07-08T03:09:39;96012.91;;;21.36;56.04
8717;BME280;4395;48.554;8.820;2023-07-08T03:11:43;96034.44;;;21.29;55.70
8717;BME280;4395;48.554;8.820;2023-07-08T03:13:46;96028.56;;;19.84;63.68
8717;BME280;4395;48.554;8.820;2023-07-08T03:15:49;96029.75;;;18.87;71.49
8717;BME280;4395;48.554;8.820;2023-07-08T03:17:54;96027.50;;;19.44;68.00
8717;BME280;4395;48.554;8.820;2023-07-08T03:19:59;96034.63;;;19.81;66.80
8717;BME280;4395;48.554;8.820;2023-07-08T03:22:03;96034.22;;;20.33;62.52
8717;BME280;4395;48.554;8.820;2023-07-08T03:24:09;95999.53;;;20.55;62.20
8717;BME280;4395;48.554;8.820;2023-07-08T03:26:19;95940.22;;;20.39;60.25
8717;BME280;4395;48.554;8.820;2023-07-08T03:28:24;96020.53;;;21.08;59.44
8717;BME280;4395;48.554;8.820;2023-07-08T03:30:27;96028.50;;;21.27;58.63
8717;BME280;4395;48.554;8.820;2023-07-08T03:32:31;95991.41;;;21.04;57.64
8717;BME280;4395;48.554;8.820;2023-07-08T03:34:36;96027.41;;;21.45;57.91
8717;BME280;4395;48.554;8.820;2023-07-08T03:36:42;95997.47;;;21.23;57.33
8717;BME280;4395;48.554;8.820;2023-07-08T03:38:51;95987.94;;;21.21;57.52
8717;BME280;4395;48.554;8.820;2023-07-08T03:40:55;96022.94;;;21.10;58.36
8717;BME280;4395;48.554;8.820;2023-07-08T03:42:57;96033.59;;;20.36;61.79
8717;BME280;4395;48.554;8.820;2023-07-08T03:45:04;96033.59;;;20.13;63.63
8717;BME280;4395;48.554;8.820;2023-07-08T03:47:07;96018.53;;;20.61;62.11
8717;BME280;4395;48.554;8.820;2023-07-08T03:49:14;96028.19;;;20.98;60.62
8717;BME280;4395;48.554;8.820;2023-07-08T03:51:21;96033.03;;;21.01;60.37
8717;BME280;4395;48.554;8.820;2023-07-08T03:53:25;96041.22;;;20.03;65.72
8717;BME280;4395;48.554;8.820;2023-07-08T03:55:28;96041.16;;;19.58;68.86
8717;BME280;4395;48.554;8.820;2023-07-08T03:57:33;96046.63;;;20.16;65.37
8717;BME280;4395;48.554;8.820;2023-07-08T03:59:37;96027.91;;;20.46;62.09
8717;BME280;4395;48.554;8.820;2023-07-08T04:01:43;96045.25;;;20.72;61.66
8717;BME280;4395;48.554;8.820;2023-07-08T04:03:47;96054.59;;;20.80;60.86
8717;BME280;4395;48.554;8.820;2023-07-08T04:05:50;96058.25;;;20.44;63.71
8717;BME280;4395;48.554;8.820;2023-07-08T04:07:55;96052.56;;;19.96;66.55
8717;BME280;4395;48.554;8.820;2023-07-08T04:09:58;96059.00;;;20.00;64.74
8717;BME280;4395;48.554;8.820;2023-07-08T04:12:01;96048.84;;;19.92;66.44
8717;BME280;4395;48.554;8.820;2023-07-08T04:14:04;96016.72;;;19.39;70.19
8717;BME280;4395;48.554;8.820;2023-07-08T04:16:11;96038.53;;;19.53;70.48
8717;BME280;4395;48.554;8.820;2023-07-08T07:05:34;96150.50;;;22.54;78.34
8717;BME280;4395;48.554;8.820;2023-07-08T07:07:37;96074.50;;;22.34;75.54
8717;BME280;4395;48.554;8.820;2023-07-08T07:09:39;96163.53;;;23.00;75.61
8717;BME280;4395;48.554;8.820;2023-07-08T07:11:41;96156.59;;;23.03;74.76
8717;BME280;4395;48.554;8.820;2023-07-08T07:15:47;96152.84;;;23.25;76.90
8717;BME280;4395;48.554;8.820;2023-07-08T07:17:53;96159.09;;;23.42;77.74
8717;BME280;4395;48.554;8.820;2023-07-08T07:19:56;96156.34;;;23.51;77.22
8717;BME280;4395;48.554;8.820;2023-07-08T07:22:00;96152.59;;;23.64;76.59
8717;BME280;4395;48.554;8.820;2023-07-08T07:24:03;96159.38;;;23.67;77.39
8717;BME280;4395;48.554;8.820;2023-07-08T07:26:08;96160.22;;;23.50;78.50
8717;BME280;4395;48.554;8.820;2023-07-08T07:28:11;96164.28;;;23.82;76.88
8717;BME280;4395;48.554;8.820;2023-07-08T07:30:13;96159.13;;;23.81;77.95
8717;BME280;4395;48.554;8.820;2023-07-08T07:32:18;96159.94;;;23.81;77.40
8717;BME280;4395;48.554;8.820;2023-07-08T07:34:21;96160.94;;;23.77;76.92
8717;BME280;4395;48.554;8.820;2023-07-08T07:36:24;96163.16;;;23.83;76.85
8717;BME280;4395;48.554;8.820;2023-07-08T07:38:29;96165.50;;;23.64;77.41
8717;BME280;4395;48.554;8.820;2023-07-08T07:40:32;96152.63;;;23.56;78.41
8717;BME280;4395;48.554;8.820;2023-07-08T07:42:35;96164.75;;;23.55;77.84
8717;BME280;4395;48.554;8.820;2023-07-08T07:44:37;96157.66;;;23.45;77.47
8717;BME280;4395;48.554;8.820;2023-07-08T07:46:40;96169.84;;;23.65;77.06
8717;BME280;4395;48.554;8.820;2023-07-08T07:48:43;96160.34;;;23.62;76.96
8717;BME280;4395;48.554;8.820;2023-07-08T07:50:46;96164.84;;;23.67;77.50
8717;BME280;4395;48.554;8.820;2023-07-08T07:52:49;96176.78;;;23.71;77.94
8717;BME280;4395;48.554;8.820;2023-07-08T07:54:53;96172.91;;;23.72;77.13
8717;BME280;4395;48.554;8.820;2023-07-08T07:56:56;96167.97;;;23.86;76.16
8717;BME280;4395;48.554;8.820;2023-07-08T07:58:59;96170.16;;;24.01;75.25
8717;BME280;4395;48.554;8.820;2023-07-08T08:01:02;96162.69;;;23.81;75.65
8717;BME280;4395;48.554;8.820;2023-07-08T08:03:05;96176.44;;;24.02;76.14
8717;BME280;4395;48.554;8.820;2023-07-08T08:05:08;96178.06;;;24.03;75.23
8717;BME280;4395;48.554;8.820;2023-07-08T08:07:10;96181.41;;;23.79;76.90
8717;BME280;4395;48.554;8.820;2023-07-08T08:09:13;96181.94;;;24.02;75.22
8717;BME280;4395;48.554;8.820;2023-07-08T08:11:17;96185.38;;;24.28;73.04
8717;BME280;4395;48.554;8.820;2023-07-08T08:13:21;96168.22;;;24.31;73.88
8717;BME280;4395;48.554;8.820;2023-07-08T08:15:24;96182.69;;;24.82;71.32
8717;BME280;4395;48.554;8.820;2023-07-08T08:17:26;96188.41;;;25.31;67.71
8717;BME280;4395;48.554;8.820;2023-07-08T08:19:29;96171.13;;;25.55;65.25
8717;BME280;4395;48.554;8.820;2023-07-08T08:21:32;96182.94;;;25.55;65.06
8717;BME280;4395;48.554;8.820;2023-07-08T08:23:35;96180.81;;;25.98;63.34
8717;BME280;4395;48.554;8.820;2023-07-08T08:25:38;96177.84;;;26.27;63.18
8717;BME280;4395;48.554;8.820;2023-07-08T08:27:42;96175.91;;;26.80;61.02
8717;BME280;4395;48.554;8.820;2023-07-08T08:29:45;96179.97;;;27.10;58.30
8717;BME280;4395;48.554;8.820;2023-07-08T08:31:48;96179.47;;;27.20;54.35
8717;BME280;4395;48.554;8.820;2023-07-08T08:33:52;96182.06;;;27.01;56.37
8717;BME280;4395;48.554;8.820;2023-07-08T08:35:54;96182.28;;;26.96;57.38
8717;BME280;4395;48.554;8.820;2023-07-08T08:37:57;96184.84;;;26.89;57.85
8717;BME280;4395;48.554;8.820;2023-07-08T08:40:00;96190.00;;;26.90;58.81
8717;BME280;4395;48.554;8.820;2023-07-08T08:42:04;96187.34;;;26.94;56.82
8717;BME280;4395;48.554;8.820;2023-07-08T08:44:13;96190.38;;;26.89;55.54
8717;BME280;4395;48.554;8.820;2023-07-08T08:46:25;96186.38;;;27.14;54.15
8717;BME280;4395;48.554;8.820;2023-07-08T08:48:31;96186.69;;;26.97;55.31
8717;BME280;4395;48.554;8.820;2023-07-08T08:50:41;96177.03;;;26.91;54.45
8717;BME280;4395;48.554;8.820;2023-07-08T08:52:45;96189.22;;;26.90;55.23
8717;BME280;4395;48.554;8.820;2023-07-08T08:54:48;96188.84;;;26.91;50.29
8717;BME280;4395;48.554;8.820;2023-07-08T08:57:00;96197.38;;;26.86;50.03
8717;BME280;4395;48.554;8.820;2023-07-08T08:59:16;96018.63;;;25.92;48.13
8717;BME280;4395;48.554;8.820;2023-07-08T09:01:22;96193.59;;;27.19;46.19
8717;BME280;4395;48.554;8.820;2023-07-08T09:03:35;96188.53;;;27.65;45.38
8717;BME280;4395;48.554;8.820;2023-07-08T09:05:41;96186.94;;;27.95;44.11
8717;BME280;4395;48.554;8.820;2023-07-08T09:07:52;96183.47;;;27.98;43.35
8717;BME280;4395;48.554;8.820;2023-07-08T09:10:03;96181.84;;;28.13;43.44
8717;BME280;4395;48.554;8.820;2023-07-08T09:12:13;96191.56;;;28.07;42.80
8717;BME280;4395;48.554;8.820;2023-07-08T09:14:24;96186.16;;;28.61;42.36
8717;BME280;4395;48.554;8.820;2023-07-08T09:16:36;96182.88;;;28.91;41.09
8717;BME280;4395;48.554;8.820;2023-07-08T09:18:48;96178.25;;;29.37;38.88
8717;BME280;4395;48.554;8.820;2023-07-08T09:20:55;96183.53;;;28.84;40.31
8717;BME280;4395;48.554;8.820;2023-07-08T09:23:03;96177.38;;;29.33;39.77
8717;BME280;4395;48.554;8.820;2023-07-08T09:25:22;96173.69;;;29.25;40.49
8717;BME280;4395;48.554;8.820;2023-07-08T09:27:26;96174.47;;;29.26;39.19
8717;BME280;4395;48.554;8.820;2023-07-08T09:29:31;96182.63;;;29.38;38.08
8717;BME280;4395;48.554;8.820;2023-07-08T09:31:37;96180.06;;;29.29;37.87
8717;BME280;4395;48.554;8.820;2023-07-08T09:33:40;96179.72;;;29.31;37.42
8717;BME280;4395;48.554;8.820;2023-07-08T09:35:45;96186.06;;;29.73;37.34
8717;BME280;4395;48.554;8.820;2023-07-08T09:37:49;96166.72;;;29.54;37.72
8717;BME280;4395;48.554;8.820;2023-07-08T09:39:53;96176.94;;;29.50;37.63
8717;BME280;4395;48.554;8.820;2023-07-08T09:41:56;96180.88;;;29.30;37.59
8717;BME280;4395;48.554;8.820;2023-07-08T09:46:16;96178.53;;;29.32;37.23
8717;BME280;4395;48.554;8.820;2023-07-08T09:48:25;96182.03;;;29.29;37.81
8717;BME280;4395;48.554;8.820;2023-07-08T09:50:29;96187.88;;;29.43;37.41
8717;BME280;4395;48.554;8.820;2023-07-08T09:52:33;96180.88;;;29.49;37.44
8717;BME280;4395;48.554;8.820;2023-07-08T09:54:35;96177.47;;;30.01;36.10
8717;BME280;4395;48.554;8.820;2023-07-08T09:56:42;96181.44;;;29.81;35.29
8717;BME280;4395;48.554;8.820;2023-07-08T09:58:45;96178.06;;;29.68;35.79
8717;BME280;4395;48.554;8.820;2023-07-08T10:00:53;96188.53;;;29.79;35.90
8717;BME280;4395;48.554;8.820;2023-07-08T10:03:00;96188.22;;;29.84;36.22
8717;BME280;4395;48.554;8.820;2023-07-08T10:05:13;96178.00;;;29.88;35.83
8717;BME280;4395;48.554;8.820;2023-07-08T10:07:17;96192.03;;;29.98;35.39
8717;BME280;4395;48.554;8.820;2023-07-08T10:09:23;96175.19;;;30.33;35.02
8717;BME280;4395;48.554;8.820;2023-07-08T10:11:29;96175.34;;;30.70;34.43
8717;BME280;4395;48.554;8.820;2023-07-08T10:13:39;96188.19;;;30.56;35.35
8717;BME280;4395;48.554;8.820;2023-07-08T10:15:45;96190.41;;;30.47;35.12
8717;BME280;4395;48.554;8.820;2023-07-08T10:17:49;96185.78;;;30.81;34.58
8717;BME280;4395;48.554;8.820;2023-07-08T10:19:53;96176.31;;;31.15;33.98
8717;BME280;4395;48.554;8.820;2023-07-08T10:22:16;96177.13;;;31.16;34.12
8717;BME280;4395;48.554;8.820;2023-07-08T10:24:38;96178.59;;;31.10;33.86
8717;BME280;4395;48.554;8.820;2023-07-08T10:26:52;96165.38;;;31.26;34.15
8717;BME280;4395;48.554;8.820;2023-07-08T10:29:11;96182.22;;;31.44;34.19
8717;BME280;4395;48.554;8.820;2023-07-08T10:31:27;96178.25;;;31.45;34.07
8717;BME280;4395;48.554;8.820;2023-07-08T10:33:45;96181.47;;;31.47;33.49
8717;BME280;4395;48.554;8.820;2023-07-08T10:36:06;96173.44;;;31.38;33.22
8717;BME280;4395;48.554;8.820;2023-07-08T10:38:29;96144.00;;;31.30;33.18
8717;BME280;4395;48.554;8.820;2023-07-08T10:40:46;96175.59;;;31.96;33.25
8717;BME280;4395;48.554;8.820;2023-07-08T10:42:59;96181.09;;;31.89;32.56
8717;BME280;4395;48.554;8.820;2023-07-08T10:45:12;96178.84;;;32.05;32.86
8717;BME280;4395;48.554;8.820;2023-07-08T10:47:26;96174.31;;;32.31;32.60
8717;BME280;4395;48.554;8.820;2023-07-08T10:49:42;96169.72;;;32.05;32.59
8717;BME280;4395;48.554;8.820;2023-07-08T10:51:59;96173.09;;;32.28;32.12
8717;BME280;4395;48.554;8.820;2023-07-08T10:54:24;96163.28;;;32.45;32.16
8717;BME280;4395;48.554;8.820;2023-07-08T10:56:36;96170.94;;;32.62;32.01
8717;BME280;4395;48.554;8.820;2023-07-08T10:58:59;96169.75;;;32.63;31.93
8717;BME280;4395;48.554;8.820;2023-07-08T11:01:16;96154.53;;;32.43;32.50
8717;BME280;4395;48.554;8.820;2023-07-08T11:03:40;96156.38;;;32.86;31.69
8717;BME280;4395;48.554;8.820;2023-07-08T11:05:46;96158.81;;;32.99;30.63
8717;BME280;4395;48.554;8.820;2023-07-08T11:07:59;96155.72;;;33.21;30.27
8717;BME280;4395;48.554;8.820;2023-07-08T11:10:09;96147.31;;;33.04;30.32
8717;BME280;4395;48.554;8.820;2023-07-08T11:12:20;96154.50;;;33.12;30.25
8717;BME280;4395;48.554;8.820;2023-07-08T11:14:30;96140.72;;;33.58;29.65
8717;BME280;4395;48.554;8.820;2023-07-08T11:16:39;96143.59;;;33.90;27.73
8717;BME280;4395;48.554;8.820;2023-07-08T11:18:48;96141.53;;;33.66;27.71
8717;BME280;4395;48.554;8.820;2023-07-08T11:20:59;96148.38;;;33.93;26.90
8717;BME280;4395;48.554;8.820;2023-07-08T11:23:10;96132.63;;;33.14;28.49
8717;BME280;4395;48.554;8.820;2023-07-08T11:25:17;96147.97;;;34.12;26.97
8717;BME280;4395;48.554;8.820;2023-07-08T11:27:24;96144.78;;;34.14;26.39
8717;BME280;4395;48.554;8.820;2023-07-08T11:29:35;96145.56;;;34.46;25.55
8717;BME280;4395;48.554;8.820;2023-07-08T11:31:40;96137.91;;;34.83;25.43
8717;BME280;4395;48.554;8.820;2023-07-08T11:33:44;96137.13;;;34.68;25.72
8717;BME280;4395;48.554;8.820;2023-07-08T11:35:50;96126.97;;;35.20;25.12
8717;BME280;4395;48.554;8.820;2023-07-08T11:37:53;96126.53;;;35.29;24.30
8717;BME280;4395;48.554;8.820;2023-07-08T11:40:17;96125.72;;;35.35;24.30
8717;BME280;4395;48.554;8.820;2023-07-08T11:42:23;96124.56;;;35.22;24.00
8717;BME280;4395;48.554;8.820;2023-07-08T11:44:26;96120.72;;;34.95;24.53
8717;BME280;4395;48.554;8.820;2023-07-08T11:46:31;96116.88;;;34.25;25.07
8717;BME280;4395;48.554;8.820;2023-07-08T11:48:39;96106.41;;;34.71;25.14
8717;BME280;4395;48.554;8.820;2023-07-08T11:50:45;96118.44;;;33.79;25.51
8717;BME280;4395;48.554;8.820;2023-07-08T11:52:54;96116.75;;;34.78;25.05
8717;BME280;4395;48.554;8.820;2023-07-08T11:55:02;96105.09;;;35.08;24.41
8717;BME280;4395;48.554;8.820;2023-07-08T11:57:07;96105.28;;;35.49;24.22
8717;BME280;4395;48.554;8.820;2023-07-08T11:59:19;96111.13;;;34.96;24.69
8717;BME280;4395;48.554;8.820;2023-07-08T12:01:25;96106.09;;;35.46;23.98
8717;BME280;4395;48.554;8.820;2023-07-08T12:03:34;96101.03;;;35.20;23.99
8717;BME280;4395;48.554;8.820;2023-07-08T12:05:37;96095.56;;;35.02;24.25
8717;BME280;4395;48.554;8.820;2023-07-08T12:07:42;96101.63;;;34.75;25.59
8717;BME280;4395;48.554;8.820;2023-07-08T12:09:48;96097.75;;;35.94;23.30
8717;BME280;4395;48.554;8.820;2023-07-08T12:11:57;96105.19;;;35.63;23.74
8717;BME280;4395;48.554;8.820;2023-07-08T12:14:03;96099.03;;;36.31;23.53
8717;BME280;4395;48.554;8.820;2023-07-08T12:16:10;96101.97;;;36.95;22.59
8717;BME280;4395;48.554;8.820;2023-07-08T12:18:15;96096.06;;;37.47;22.12
8717;BME280;4395;48.554;8.820;2023-07-08T12:20:22;96090.66;;;36.31;22.59
8717;BME280;4395;48.554;8.820;2023-07-08T12:22:25;96093.00;;;36.36;22.82
8717;BME280;4395;48.554;8.820;2023-07-08T12:24:29;96077.50;;;36.99;22.26
8717;BME280;4395;48.554;8.820;2023-07-08T12:26:33;96072.31;;;37.55;22.01
8717;BME280;4395;48.554;8.820;2023-07-08T12:28:38;96089.53;;;36.96;22.07
8717;BME280;4395;48.554;8.820;2023-07-08T12:30:42;96091.63;;;37.50;22.36
8717;BME280;4395;48.554;8.820;2023-07-08T12:32:45;96088.94;;;37.43;22.16
8717;BME280;4395;48.554;8.820;2023-07-08T12:34:48;96068.59;;;37.89;21.75
8717;BME280;4395;48.554;8.820;2023-07-08T12:36:52;96082.94;;;37.67;22.16
8717;BME280;4395;48.554;8.820;2023-07-08T12:38:58;96090.00;;;38.26;22.08
8717;BME280;4395;48.554;8.820;2023-07-08T12:41:08;96092.06;;;38.45;21.50
8717;BME280;4395;48.554;8.820;2023-07-08T12:43:11;96088.44;;;38.68;21.34
8717;BME280;4395;48.554;8.820;2023-07-08T12:45:18;96085.00;;;38.37;22.07
8717;BME280;4395;48.554;8.820;2023-07-08T12:47:22;96091.53;;;38.74;21.66
8717;BME280;4395;48.554;8.820;2023-07-08T12:49:25;96085.47;;;38.95;20.92
8717;BME280;4395;48.554;8.820;2023-07-08T12:51:30;96092.41;;;39.10;21.56
8717;BME280;4395;48.554;8.820;2023-07-08T12:53:33;96076.75;;;39.29;21.32
8717;BME280;4395;48.554;8.820;2023-07-08T12:55:39;96081.34;;;39.39;21.06
8717;BME280;4395;48.554;8.820;2023-07-08T12:57:45;96078.34;;;39.30;21.15
8717;BME280;4395;48.554;8.820;2023-07-08T12:59:50;96083.78;;;39.90;21.15
8717;BME280;4395;48.554;8.820;2023-07-08T13:01:54;96079.47;;;39.85;20.37
8717;BME280;4395;48.554;8.820;2023-07-08T13:03:59;96041.25;;;39.55;20.18
8717;BME280;4395;48.554;8.820;2023-07-08T13:06:04;96085.94;;;39.13;20.48
8717;BME280;4395;48.554;8.820;2023-07-08T13:08:11;96081.97;;;39.47;20.98
8717;BME280;4395;48.554;8.820;2023-07-08T13:10:19;96071.50;;;40.00;20.06
8717;BME280;4395;48.554;8.820;2023-07-08T13:12:23;96074.44;;;39.60;20.63
8717;BME280;4395;48.554;8.820;2023-07-08T13:14:26;96082.53;;;39.91;20.15
8717;BME280;4395;48.554;8.820;2023-07-08T13:16:32;96081.13;;;39.82;19.88
8717;BME280;4395;48.554;8.820;2023-07-08T13:18:39;96083.25;;;39.78;20.13
8717;BME280;4395;48.554;8.820;2023-07-08T13:20:43;96067.19;;;39.27;20.96
8717;BME280;4395;48.554;8.820;2023-07-08T13:22:52;96083.25;;;39.26;21.46
8717;BME280;4395;48.554;8.820;2023-07-08T13:24:59;96066.50;;;39.39;20.83
8717;BME280;4395;48.554;8.820;2023-07-08T13:27:04;96080.78;;;39.80;20.66
8717;BME280;4395;48.554;8.820;2023-07-08T13:29:11;96079.91;;;39.67;21.09
8717;BME280;4395;48.554;8.820;2023-07-08T13:31:18;96078.88;;;39.41;21.58
8717;BME280;4395;48.554;8.820;2023-07-08T13:33:29;96081.31;;;39.59;21.36
8717;BME280;4395;48.554;8.820;2023-07-08T13:35:37;96077.44;;;39.69;20.86
8717;BME280;4395;48.554;8.820;2023-07-08T13:37:40;96077.97;;;39.80;20.65
8717;BME280;4395;48.554;8.820;2023-07-08T13:39:45;96078.84;;;39.77;21.24
8717;BME280;4395;48.554;8.820;2023-07-08T13:41:48;96061.78;;;40.17;20.09
8717;BME280;4395;48.554;8.820;2023-07-08T13:43:51;96068.22;;;40.17;20.28
8717;BME280;4395;48.554;8.820;2023-07-08T13:45:54;96069.72;;;39.90;20.39
8717;BME280;4395;48.554;8.820;2023-07-08T13:47:59;96069.44;;;40.16;20.07
8717;BME280;4395;48.554;8.820;2023-07-08T13:50:11;96072.22;;;40.49;19.86
8717;BME280;4395;48.554;8.820;2023-07-08T13:52:22;96048.06;;;40.35;19.48
8717;BME280;4395;48.554;8.820;2023-07-08T13:54:32;96060.34;;;40.99;19.51
8717;BME280;4395;48.554;8.820;2023-07-08T13:56:36;96073.25;;;41.26;19.43
8717;BME280;4395;48.554;8.820;2023-07-08T13:58:42;96074.84;;;41.52;19.43
8717;BME280;4395;48.554;8.820;2023-07-08T14:00:46;96076.75;;;41.42;19.67
8717;BME280;4395;48.554;8.820;2023-07-08T14:02:48;96082.09;;;40.99;19.66
8717;BME280;4395;48.554;8.820;2023-07-08T14:04:52;96070.03;;;40.98;19.35
8717;BME280;4395;48.554;8.820;2023-07-08T14:06:56;96073.56;;;40.28;19.39
8717;BME280;4395;48.554;8.820;2023-07-08T14:09:06;96068.94;;;40.51;19.43
8717;BME280;4395;48.554;8.820;2023-07-08T14:11:10;96066.34;;;40.27;19.87
8717;BME280;4395;48.554;8.820;2023-07-08T14:13:13;96041.09;;;40.69;19.37
8717;BME280;4395;48.554;8.820;2023-07-08T14:15:17;96064.75;;;41.13;19.29
8717;BME280;4395;48.554;8.820;2023-07-08T14:17:21;96062.31;;;41.40;18.75
8717;BME280;4395;48.554;8.820;2023-07-08T14:19:27;96067.22;;;40.40;19.45
8717;BME280;4395;48.554;8.820;2023-07-08T14:21:33;96065.47;;;40.30;20.35
8717;BME280;4395;48.554;8.820;2023-07-08T14:23:37;96071.91;;;40.60;20.29
8717;BME280;4395;48.554;8.820;2023-07-08T14:25:41;96063.31;;;41.21;19.23